logo tempoitalia

Diretta Meteo Huesca-Pirineos, Spagnalunedì 31 agosto ore 07:00

Mappa
Sereno 16 °C Sereno 24 Ore: T.min 16 T.max 32
Ponente Ovest Km/h 13 Punto di rugiada: 14 °C Umidità: 87% Visibilità: 10 Km
Il sole sorge alle: 07:25 Il sole tramonta alle: 20:37
31 Agosto 2026 07:00 tempo osservato: Sereno Sereno 16 87 1020 vento: Nord O 13
31 Agosto 2026 06:30 tempo osservato: Sereno Sereno 16 87 1019 vento: Nord O 14.8
31 Agosto 2026 06:00 tempo osservato: Sereno Sereno 17 82 1019 vento: Nord O 11.1
31 Agosto 2026 05:30 tempo osservato: Sereno Sereno 17 88 1019 vento: Nord O 13
31 Agosto 2026 05:00 tempo osservato: Sereno Sereno 18 82 1019 vento: Nord O 13
31 Agosto 2026 04:30 tempo osservato: Sereno Sereno 19 77 1019 vento: Nord O/NO 11.1
31 Agosto 2026 04:00 tempo osservato: Sereno Sereno 18 82 1019 vento: Nord O 11.1
31 Agosto 2026 03:30 tempo osservato: Sereno Sereno 19 77 1019 vento: Nord O 7.4
31 Agosto 2026 03:00 tempo osservato: Sereno Sereno 20 72 1019 vento: Nord O/SO 7.4
31 Agosto 2026 02:30 tempo osservato: Sereno Sereno 21 68 1019 vento: Nord N 5.5
31 Agosto 2026 02:00 tempo osservato: Sereno Sereno 21 68 1019 vento: Nord N 3.7
31 Agosto 2026 01:30 tempo osservato: Sereno Sereno 22 64 1019 vento: Nord N 5.5
31 Agosto 2026 01:00 tempo osservato: Sereno Sereno 22 64 1019 vento: Nord N 3.7
31 Agosto 2026 00:30 tempo osservato: Sereno Sereno 23 60 1019 vento: Nord E 7.4
31 Agosto 2026 00:00 tempo osservato: Sereno Sereno 23 56 1018 vento: Nord E 13
30 Agosto 2026 23:30 tempo osservato: Sereno Sereno 23 53 1018 vento: Nord E/NE 7.4
30 Agosto 2026 23:00 tempo osservato: Sereno Sereno 24 50 1018 vento: Nord N 5.5
30 Agosto 2026 22:30 tempo osservato: Sereno Sereno 24 47 1018 vento: Nord N 5.5
30 Agosto 2026 22:00 tempo osservato: Sereno Sereno 25 47 1017 vento: Nord SE 7.4
30 Agosto 2026 21:30 tempo osservato: Sereno Sereno 26 41 1017 vento: Nord S/SE 11.1
30 Agosto 2026 21:00 tempo osservato: Sereno Sereno 27 36 1016 vento: Nord SE 11.1
30 Agosto 2026 20:30 tempo osservato: Sereno Sereno 28 32 1016 vento: Nord S/SE 7.4
30 Agosto 2026 20:00 tempo osservato: Sereno Sereno 30 25 1016 vento: Nord N 5.5
30 Agosto 2026 19:30 tempo osservato: Sereno Sereno 31 22 1016 vento: Nord N 3.7
30 Agosto 2026 19:00 tempo osservato: Sereno Sereno 31 22 1016 vento: Nord N 3.7
30 Agosto 2026 18:30 tempo osservato: Sereno Sereno 32 21 1016 vento: Nord N 5.5
30 Agosto 2026 18:00 tempo osservato: Sereno Sereno 32 21 1016 vento: Nord N 11.1
30 Agosto 2026 17:30 tempo osservato: Sereno Sereno 32 22 1017 vento: Nord N 3.7
30 Agosto 2026 17:00 tempo osservato: Sereno Sereno 31 23 1017 vento: Nord N 5.5
30 Agosto 2026 16:30 tempo osservato: Sereno Sereno 32 24 1017 vento: Nord N 7.4
30 Agosto 2026 16:00 tempo osservato: Poco Nuvoloso Poco Nuvoloso 31 27 1018 vento: Nord SO 7.4
30 Agosto 2026 15:30 tempo osservato: Poco Nuvoloso Poco Nuvoloso 30 33 1018 vento: Nord E/SE 13
30 Agosto 2026 15:00 tempo osservato: Sereno Sereno 30 30 1018 vento: Nord S 7.4
30 Agosto 2026 14:30 tempo osservato: Sereno Sereno 30 33 1019 vento: Nord E/SE 14.8
30 Agosto 2026 14:00 tempo osservato: Sereno Sereno 29 35 1019 vento: Nord E/SE 9.3
30 Agosto 2026 13:30 tempo osservato: Sereno Sereno 28 39 1019 vento: Nord E/SE 13
30 Agosto 2026 13:00 tempo osservato: Sereno Sereno 27 42 1019 vento: Nord E/SE 14.8
30 Agosto 2026 12:30 tempo osservato: Sereno Sereno 27 42 1020 vento: Nord SE 14.8
30 Agosto 2026 12:00 tempo osservato: Sereno Sereno 27 39 1020 vento: Nord E/SE 16.7
30 Agosto 2026 11:30 tempo osservato: Sereno Sereno 26 44 1020 vento: Nord SE 14.8
30 Agosto 2026 11:00 tempo osservato: Sereno Sereno 26 41 1020 vento: Nord E/SE 14.8
30 Agosto 2026 10:30 tempo osservato: Sereno Sereno 25 44 1020 vento: Nord E/SE 14.8
30 Agosto 2026 10:00 tempo osservato: Sereno Sereno 24 47 1020 vento: Nord E/SE 9.3
30 Agosto 2026 09:30 tempo osservato: Sereno Sereno 23 46 1020 vento: Nord N 3.7
30 Agosto 2026 09:00 tempo osservato: Sereno Sereno 20 49 1019 vento: Nord N 5.5
30 Agosto 2026 08:30 tempo osservato: Sereno Sereno 19 48 1019 vento: Nord N 5.5
30 Agosto 2026 08:00 tempo osservato: Sereno Sereno 18 51 1019 vento: Nord N 3.7